M/V Crosby Hustler — WDA3941 — position and weather

sailwx.info

Track history (hours):
 
Tides and Currents Weather Stations Pressure Air Temp Water Temp Dewpoint Dewpoint Depression Visibility Wind Speed Wind Dir Waves Ship Positions

M/V Crosby Hustler

Owner: CROSBY INLAND MARINE LLC, GOLDEN MEADOW, LA. More information available from US FCC via Universal Licensing System and Coast Guard Vessel Documentation Center.

Last reported at 2014-Oct-20 00:31 UTC. Time now 2014-Oct-21 12:08 UTC.
Position N 29°29' W 094°52'.

Length 18 m; draft 9 m.

Type: Tug. MMSI: 366804030.

Date/timePositionNaut miles runAvg speedWind from/ knotsBaromVisibWave heightAir tempDewpointWater temp
2014-Oct-20 00:31N 29°29' W 094°52'6 6.5
2014-Oct-19 23:33N 29°35' W 094°56'7 6.6
2014-Oct-19 22:33N 29°41' W 094°59'6 5.9
2014-Oct-19 21:33N 29°45' W 095°04'3 0.2
2014-Oct-19 09:29N 29°48' W 095°04'0 0.0
2014-Oct-19 07:08N 29°48' W 095°04'0 0.0
2014-Oct-19 06:29N 29°48' W 095°04'0 0.0
2014-Oct-18 15:08N 29°48' W 095°04'3 4.9
2014-Oct-18 14:33N 29°45' W 095°06'7 5.6
2014-Oct-18 13:23N 29°43' W 095°13'2 0.2
2014-Oct-18 06:24N 29°43' W 095°15'0 0.0
2014-Oct-18 05:15N 29°43' W 095°15'1 0.1
2014-Oct-17 16:25N 29°43' W 095°14'4 4.3
2014-Oct-17 15:24N 29°44' W 095°09'3 3.6
2014-Oct-17 14:33N 29°46' W 095°06'1 0.8
2014-Oct-17 13:30N 29°47' W 095°06'0 0.0
2014-Oct-17 10:30N 29°47' W 095°06'0 0.0
2014-Oct-17 08:18N 29°47' W 095°06'0 0.0
2014-Oct-17 07:24N 29°47' W 095°06'0 0.0
2014-Oct-17 04:24N 29°47' W 095°06'0 0.0
2014-Oct-17 03:30N 29°47' W 095°06'0 0.0
2014-Oct-17 02:30N 29°47' W 095°06'0 0.0
2014-Oct-17 01:30N 29°47' W 095°06'0 0.0
2014-Oct-17 00:33N 29°47' W 095°06'1 0.2
2014-Oct-16 19:33N 29°46' W 095°05'2 0.3
2014-Oct-16 13:22N 29°48' W 095°04'0 0.0
2014-Oct-16 12:19N 29°48' W 095°04'0 0.0
2014-Oct-16 10:31N 29°48' W 095°04'0 0.0
2014-Oct-16 09:28N 29°48' W 095°04'0 0.0
2014-Oct-16 08:22N 29°48' W 095°04'0 0.0
2014-Oct-16 05:19N 29°48' W 095°04'0 0.0
2014-Oct-16 03:31N 29°48' W 095°04'0 0.0
2014-Oct-16 02:28N 29°48' W 095°04'0 0.0
2014-Oct-16 01:28N 29°48' W 095°04'0 0.0
2014-Oct-16 00:10N 29°48' W 095°04'0 0.0
2014-Oct-15 23:22N 29°48' W 095°04'0 0.0
2014-Oct-15 15:10N 29°48' W 095°04'3 5.1
2014-Oct-15 14:33N 29°45' W 095°06'7 5.7
2014-Oct-15 13:23N 29°44' W 095°13'1 0.6
2014-Oct-15 11:31N 29°43' W 095°15'0 0.0
2014-Oct-15 10:31N 29°43' W 095°15'0 0.0
2014-Oct-15 09:25N 29°43' W 095°15'0 0.0
2014-Oct-15 08:31N 29°43' W 095°15'0 0.0
2014-Oct-15 07:25N 29°43' W 095°15'0 0.0
2014-Oct-15 06:31N 29°43' W 095°15'0 0.0
2014-Oct-15 05:31N 29°43' W 095°15'0 0.0
2014-Oct-15 04:31N 29°43' W 095°15'0 0.0
2014-Oct-15 03:22N 29°43' W 095°15'0 0.0
2014-Oct-15 02:25N 29°43' W 095°15'0 0.0
2014-Oct-15 01:31N 29°43' W 095°15'0 0.0
2014-Oct-14 12:31N 29°43' W 095°15'0 0.0
2014-Oct-14 11:31N 29°43' W 095°15'0 0.0
2014-Oct-14 10:19N 29°43' W 095°15'2 2.8
2014-Oct-14 09:29N 29°44' W 095°12'5 4.8
2014-Oct-14 08:33N 29°44' W 095°07'2 2.1
2014-Oct-14 07:32N 29°46' W 095°06'0 0.2
2014-Oct-14 05:23N 29°47' W 095°06'0 0.0
2014-Oct-14 01:32N 29°47' W 095°06'0 0.0
2014-Oct-13 14:22N 29°47' W 095°06'0 0.0
2014-Oct-13 07:07N 29°47' W 095°06'0 0.0
2014-Oct-13 06:07N 29°47' W 095°06'0 0.0
2014-Oct-13 04:31N 29°47' W 095°06'0 0.0
2014-Oct-13 03:19N 29°47' W 095°06'0 0.0
2014-Oct-12 23:16N 29°47' W 095°06'0 0.0
2014-Oct-12 22:25N 29°47' W 095°06'0 0.0
2014-Oct-12 21:10N 29°47' W 095°06'0 0.0
2014-Oct-12 20:07N 29°47' W 095°06'1 0.1
2014-Oct-12 09:13N 29°46' W 095°06'3 4.2
2014-Oct-12 08:33N 29°44' W 095°03'5 4.7
2014-Oct-12 07:33N 29°41' W 094°59'6 5.6
2014-Oct-12 06:33N 29°36' W 094°57'6 5.9
2014-Oct-12 05:33N 29°31' W 094°53'7 6.1
2014-Oct-12 04:27N 29°25' W 094°50'  
Track history (hours):
 
Tides and Currents Weather Stations Pressure Air Temp Water Temp Dewpoint Dewpoint Depression Visibility Wind Speed Wind Dir Waves Ship Positions

M/V Crosby Hustler

Owner: CROSBY INLAND MARINE LLC, GOLDEN MEADOW, LA. More information available from US FCC via Universal Licensing System and Coast Guard Vessel Documentation Center.

Last reported at 2014-Oct-20 00:31 UTC. Time now 2014-Oct-21 12:08 UTC.
Position N 29°29' W 094°52'.

Length 18 m; draft 9 m.

Type: Tug. MMSI: 366804030.

Date/timePositionNaut miles runAvg speedWind from/ knotsBaromVisibWave heightAir tempDewpointWater temp
2014-Oct-20 00:31N 29°29' W 094°52'6 6.5
2014-Oct-19 23:33N 29°35' W 094°56'7 6.6
2014-Oct-19 22:33N 29°41' W 094°59'6 5.9
2014-Oct-19 21:33N 29°45' W 095°04'3 0.2
2014-Oct-19 09:29N 29°48' W 095°04'0 0.0
2014-Oct-19 07:08N 29°48' W 095°04'0 0.0
2014-Oct-19 06:29N 29°48' W 095°04'0 0.0
2014-Oct-18 15:08N 29°48' W 095°04'3 4.9
2014-Oct-18 14:33N 29°45' W 095°06'7 5.6
2014-Oct-18 13:23N 29°43' W 095°13'2 0.2
2014-Oct-18 06:24N 29°43' W 095°15'0 0.0
2014-Oct-18 05:15N 29°43' W 095°15'1 0.1
2014-Oct-17 16:25N 29°43' W 095°14'4 4.3
2014-Oct-17 15:24N 29°44' W 095°09'3 3.6
2014-Oct-17 14:33N 29°46' W 095°06'1 0.8
2014-Oct-17 13:30N 29°47' W 095°06'0 0.0
2014-Oct-17 10:30N 29°47' W 095°06'0 0.0
2014-Oct-17 08:18N 29°47' W 095°06'0 0.0
2014-Oct-17 07:24N 29°47' W 095°06'0 0.0
2014-Oct-17 04:24N 29°47' W 095°06'0 0.0
2014-Oct-17 03:30N 29°47' W 095°06'0 0.0
2014-Oct-17 02:30N 29°47' W 095°06'0 0.0
2014-Oct-17 01:30N 29°47' W 095°06'0 0.0
2014-Oct-17 00:33N 29°47' W 095°06'1 0.2
2014-Oct-16 19:33N 29°46' W 095°05'2 0.3
2014-Oct-16 13:22N 29°48' W 095°04'0 0.0
2014-Oct-16 12:19N 29°48' W 095°04'0 0.0
2014-Oct-16 10:31N 29°48' W 095°04'0 0.0
2014-Oct-16 09:28N 29°48' W 095°04'0 0.0
2014-Oct-16 08:22N 29°48' W 095°04'0 0.0
2014-Oct-16 05:19N 29°48' W 095°04'0 0.0
2014-Oct-16 03:31N 29°48' W 095°04'0 0.0
2014-Oct-16 02:28N 29°48' W 095°04'0 0.0
2014-Oct-16 01:28N 29°48' W 095°04'0 0.0
2014-Oct-16 00:10N 29°48' W 095°04'0 0.0
2014-Oct-15 23:22N 29°48' W 095°04'0 0.0
2014-Oct-15 15:10N 29°48' W 095°04'3 5.1
2014-Oct-15 14:33N 29°45' W 095°06'7 5.7
2014-Oct-15 13:23N 29°44' W 095°13'1 0.6
2014-Oct-15 11:31N 29°43' W 095°15'0 0.0
2014-Oct-15 10:31N 29°43' W 095°15'0 0.0
2014-Oct-15 09:25N 29°43' W 095°15'0 0.0
2014-Oct-15 08:31N 29°43' W 095°15'0 0.0
2014-Oct-15 07:25N 29°43' W 095°15'0 0.0
2014-Oct-15 06:31N 29°43' W 095°15'0 0.0
2014-Oct-15 05:31N 29°43' W 095°15'0 0.0
2014-Oct-15 04:31N 29°43' W 095°15'0 0.0
2014-Oct-15 03:22N 29°43' W 095°15'0 0.0
2014-Oct-15 02:25N 29°43' W 095°15'0 0.0
2014-Oct-15 01:31N 29°43' W 095°15'0 0.0
2014-Oct-14 12:31N 29°43' W 095°15'0 0.0
2014-Oct-14 11:31N 29°43' W 095°15'0 0.0
2014-Oct-14 10:19N 29°43' W 095°15'2 2.8
2014-Oct-14 09:29N 29°44' W 095°12'5 4.8
2014-Oct-14 08:33N 29°44' W 095°07'2 2.1
2014-Oct-14 07:32N 29°46' W 095°06'0 0.2
2014-Oct-14 05:23N 29°47' W 095°06'0 0.0
2014-Oct-14 01:32N 29°47' W 095°06'0 0.0
2014-Oct-13 14:22N 29°47' W 095°06'0 0.0
2014-Oct-13 07:07N 29°47' W 095°06'0 0.0
2014-Oct-13 06:07N 29°47' W 095°06'0 0.0
2014-Oct-13 04:31N 29°47' W 095°06'0 0.0
2014-Oct-13 03:19N 29°47' W 095°06'0 0.0
2014-Oct-12 23:16N 29°47' W 095°06'0 0.0
2014-Oct-12 22:25N 29°47' W 095°06'0 0.0
2014-Oct-12 21:10N 29°47' W 095°06'0 0.0
2014-Oct-12 20:07N 29°47' W 095°06'1 0.1
2014-Oct-12 09:13N 29°46' W 095°06'3 4.2
2014-Oct-12 08:33N 29°44' W 095°03'5 4.7
2014-Oct-12 07:33N 29°41' W 094°59'6 5.6
2014-Oct-12 06:33N 29°36' W 094°57'6 5.9
2014-Oct-12 05:33N 29°31' W 094°53'7 6.1
2014-Oct-12 04:27N 29°25' W 094°50'  

Dump ship's entire track history